sensor_id;sensor_type;location;lat;lon;timestamp;temperature;humidity
41953;DHT22;63613;28.200;112.870;2022-10-15T00:02:09;24.00;47.70
41953;DHT22;63613;28.200;112.870;2022-10-15T00:04:36;24.00;47.70
41953;DHT22;63613;28.200;112.870;2022-10-15T00:07:03;24.00;47.70
41953;DHT22;63613;28.200;112.870;2022-10-15T00:09:30;24.00;47.70
41953;DHT22;63613;28.200;112.870;2022-10-15T00:11:57;24.00;47.80
41953;DHT22;63613;28.200;112.870;2022-10-15T00:14:24;24.00;47.80
41953;DHT22;63613;28.200;112.870;2022-10-15T00:16:51;24.00;47.80
41953;DHT22;63613;28.200;112.870;2022-10-15T00:19:19;24.00;47.90
41953;DHT22;63613;28.200;112.870;2022-10-15T00:21:46;24.00;47.80
41953;DHT22;63613;28.200;112.870;2022-10-15T00:24:15;24.00;47.80
41953;DHT22;63613;28.200;112.870;2022-10-15T00:26:42;24.00;47.80
41953;DHT22;63613;28.200;112.870;2022-10-15T00:29:10;24.00;47.90
41953;DHT22;63613;28.200;112.870;2022-10-15T00:31:37;24.00;47.80
41953;DHT22;63613;28.200;112.870;2022-10-15T00:34:04;24.10;47.80
41953;DHT22;63613;28.200;112.870;2022-10-15T00:36:34;24.10;47.80
41953;DHT22;63613;28.200;112.870;2022-10-15T00:39:03;24.10;47.80
41953;DHT22;63613;28.200;112.870;2022-10-15T00:41:34;24.10;47.80
41953;DHT22;63613;28.200;112.870;2022-10-15T00:44:46;24.20;47.80
41953;DHT22;63613;28.200;112.870;2022-10-15T00:47:33;24.10;47.90
41953;DHT22;63613;28.200;112.870;2022-10-15T00:50:19;24.10;47.90
41953;DHT22;63613;28.200;112.870;2022-10-15T00:53:05;24.20;48.00
41953;DHT22;63613;28.200;112.870;2022-10-15T00:55:37;24.20;48.00
41953;DHT22;63613;28.200;112.870;2022-10-15T00:58:18;24.20;48.00
41953;DHT22;63613;28.200;112.870;2022-10-15T01:00:54;24.20;47.90
41953;DHT22;63613;28.200;112.870;2022-10-15T01:03:22;24.20;47.90
41953;DHT22;63613;28.200;112.870;2022-10-15T01:05:50;24.20;48.10
41953;DHT22;63613;28.200;112.870;2022-10-15T01:08:21;24.20;48.00
41953;DHT22;63613;28.200;112.870;2022-10-15T01:13:34;24.20;48.00
41953;DHT22;63613;28.200;112.870;2022-10-15T01:16:07;24.10;48.60
41953;DHT22;63613;28.200;112.870;2022-10-15T01:18:43;24.10;48.90
41953;DHT22;63613;28.200;112.870;2022-10-15T01:21:35;24.10;49.30
41953;DHT22;63613;28.200;112.870;2022-10-15T01:27:08;24.30;50.10
41953;DHT22;63613;28.200;112.870;2022-10-15T01:32:40;24.30;51.80
41953;DHT22;63613;28.200;112.870;2022-10-15T01:40:37;24.30;52.60
41953;DHT22;63613;28.200;112.870;2022-10-15T01:46:19;24.20;52.20
41953;DHT22;63613;28.200;112.870;2022-10-15T01:48:48;24.20;52.20
41953;DHT22;63613;28.200;112.870;2022-10-15T01:51:42;24.20;51.40
41953;DHT22;63613;28.200;112.870;2022-10-15T01:54:11;24.20;51.50
41953;DHT22;63613;28.200;112.870;2022-10-15T01:56:59;24.20;51.40
41953;DHT22;63613;28.200;112.870;2022-10-15T01:59:31;24.30;51.50
41953;DHT22;63613;28.200;112.870;2022-10-15T02:01:59;24.30;51.70
41953;DHT22;63613;28.200;112.870;2022-10-15T02:04:30;24.30;52.10
41953;DHT22;63613;28.200;112.870;2022-10-15T02:07:10;24.30;51.40
41953;DHT22;63613;28.200;112.870;2022-10-15T02:15:25;24.50;50.40
41953;DHT22;63613;28.200;112.870;2022-10-15T02:23:13;24.70;49.90
41953;DHT22;63613;28.200;112.870;2022-10-15T02:25:42;24.70;49.40
41953;DHT22;63613;28.200;112.870;2022-10-15T02:28:12;24.80;49.90
41953;DHT22;63613;28.200;112.870;2022-10-15T02:30:44;24.80;49.70
41953;DHT22;63613;28.200;112.870;2022-10-15T02:33:13;24.80;49.50
41953;DHT22;63613;28.200;112.870;2022-10-15T02:35:41;24.80;49.20
41953;DHT22;63613;28.200;112.870;2022-10-15T02:38:11;24.80;48.40
41953;DHT22;63613;28.200;112.870;2022-10-15T02:40:40;24.80;47.50
41953;DHT22;63613;28.200;112.870;2022-10-15T02:43:11;24.80;47.60
41953;DHT22;63613;28.200;112.870;2022-10-15T02:45:40;24.90;47.50
41953;DHT22;63613;28.200;112.870;2022-10-15T02:48:07;25.00;47.50
41953;DHT22;63613;28.200;112.870;2022-10-15T02:50:35;25.00;47.40
41953;DHT22;63613;28.200;112.870;2022-10-15T02:53:02;25.00;47.60
41953;DHT22;63613;28.200;112.870;2022-10-15T02:55:29;25.10;47.90
41953;DHT22;63613;28.200;112.870;2022-10-15T02:57:56;25.20;48.10
41953;DHT22;63613;28.200;112.870;2022-10-15T03:00:23;25.30;48.00
41953;DHT22;63613;28.200;112.870;2022-10-15T03:02:51;25.30;47.50
41953;DHT22;63613;28.200;112.870;2022-10-15T03:05:18;25.30;47.30
41953;DHT22;63613;28.200;112.870;2022-10-15T03:08:05;25.30;46.20
41953;DHT22;63613;28.200;112.870;2022-10-15T03:10:32;25.40;46.40
41953;DHT22;63613;28.200;112.870;2022-10-15T03:13:05;25.40;46.00
41953;DHT22;63613;28.200;112.870;2022-10-15T03:15:32;25.40;46.00
41953;DHT22;63613;28.200;112.870;2022-10-15T03:18:00;25.40;46.20
41953;DHT22;63613;28.200;112.870;2022-10-15T03:20:27;25.50;46.60
41953;DHT22;63613;28.200;112.870;2022-10-15T03:22:54;25.60;46.40
41953;DHT22;63613;28.200;112.870;2022-10-15T03:25:21;25.60;45.80
41953;DHT22;63613;28.200;112.870;2022-10-15T03:27:48;25.70;45.90
41953;DHT22;63613;28.200;112.870;2022-10-15T03:30:18;25.70;45.10
41953;DHT22;63613;28.200;112.870;2022-10-15T03:33:05;25.70;46.00
41953;DHT22;63613;28.200;112.870;2022-10-15T03:35:32;25.80;46.10
41953;DHT22;63613;28.200;112.870;2022-10-15T03:38:00;25.80;45.90
41953;DHT22;63613;28.200;112.870;2022-10-15T03:40:27;25.80;45.40
41953;DHT22;63613;28.200;112.870;2022-10-15T03:42:54;25.80;45.50
41953;DHT22;63613;28.200;112.870;2022-10-15T03:45:22;25.90;45.70
41953;DHT22;63613;28.200;112.870;2022-10-15T03:48:09;25.90;45.50
41953;DHT22;63613;28.200;112.870;2022-10-15T03:50:37;25.90;45.30
41953;DHT22;63613;28.200;112.870;2022-10-15T03:53:04;25.90;45.20
41953;DHT22;63613;28.200;112.870;2022-10-15T03:55:33;26.00;45.20
41953;DHT22;63613;28.200;112.870;2022-10-15T03:58:01;26.10;44.70
41953;DHT22;63613;28.200;112.870;2022-10-15T04:00:28;26.20;44.40
41953;DHT22;63613;28.200;112.870;2022-10-15T04:02:56;26.20;43.90
41953;DHT22;63613;28.200;112.870;2022-10-15T04:05:23;26.30;43.80
41953;DHT22;63613;28.200;112.870;2022-10-15T04:07:50;26.30;43.60
41953;DHT22;63613;28.200;112.870;2022-10-15T04:10:17;26.40;43.40
41953;DHT22;63613;28.200;112.870;2022-10-15T04:13:28;26.50;43.20
41953;DHT22;63613;28.200;112.870;2022-10-15T04:15:55;26.60;43.10
41953;DHT22;63613;28.200;112.870;2022-10-15T04:18:22;26.60;42.80
41953;DHT22;63613;28.200;112.870;2022-10-15T04:20:49;26.70;42.70
41953;DHT22;63613;28.200;112.870;2022-10-15T04:23:17;26.70;42.60
41953;DHT22;63613;28.200;112.870;2022-10-15T04:26:04;26.70;42.60
41953;DHT22;63613;28.200;112.870;2022-10-15T04:28:31;26.80;42.30
41953;DHT22;63613;28.200;112.870;2022-10-15T04:31:00;26.80;42.40
41953;DHT22;63613;28.200;112.870;2022-10-15T04:33:27;26.90;42.50
41953;DHT22;63613;28.200;112.870;2022-10-15T04:36:02;26.90;42.40
41953;DHT22;63613;28.200;112.870;2022-10-15T04:38:30;27.00;42.30
41953;DHT22;63613;28.200;112.870;2022-10-15T04:41:06;27.10;42.20
41953;DHT22;63613;28.200;112.870;2022-10-15T04:43:37;27.10;42.10
41953;DHT22;63613;28.200;112.870;2022-10-15T04:46:07;27.20;41.90
41953;DHT22;63613;28.200;112.870;2022-10-15T04:48:36;27.20;41.20
41953;DHT22;63613;28.200;112.870;2022-10-15T04:51:18;27.20;41.20
41953;DHT22;63613;28.200;112.870;2022-10-15T04:53:45;27.30;41.20
41953;DHT22;63613;28.200;112.870;2022-10-15T04:56:16;27.30;41.30
41953;DHT22;63613;28.200;112.870;2022-10-15T04:58:45;27.40;41.10
41953;DHT22;63613;28.200;112.870;2022-10-15T05:01:16;27.50;41.60
41953;DHT22;63613;28.200;112.870;2022-10-15T05:03:45;27.40;41.90
41953;DHT22;63613;28.200;112.870;2022-10-15T05:06:18;27.40;41.20
41953;DHT22;63613;28.200;112.870;2022-10-15T05:08:46;27.40;41.30
41953;DHT22;63613;28.200;112.870;2022-10-15T05:11:19;27.50;41.00
41953;DHT22;63613;28.200;112.870;2022-10-15T05:13:47;27.60;41.10
41953;DHT22;63613;28.200;112.870;2022-10-15T05:16:19;27.60;41.20
41953;DHT22;63613;28.200;112.870;2022-10-15T05:18:50;27.70;41.20
41953;DHT22;63613;28.200;112.870;2022-10-15T05:21:18;27.70;41.10
41953;DHT22;63613;28.200;112.870;2022-10-15T05:23:46;27.70;40.70
41953;DHT22;63613;28.200;112.870;2022-10-15T05:26:20;27.80;40.60
41953;DHT22;63613;28.200;112.870;2022-10-15T05:28:48;27.80;40.50
41953;DHT22;63613;28.200;112.870;2022-10-15T05:31:18;27.80;40.10
41953;DHT22;63613;28.200;112.870;2022-10-15T05:33:50;27.80;40.20
41953;DHT22;63613;28.200;112.870;2022-10-15T05:36:27;27.90;39.50
41953;DHT22;63613;28.200;112.870;2022-10-15T05:38:57;28.00;39.70
41953;DHT22;63613;28.200;112.870;2022-10-15T05:41:26;28.00;39.90
41953;DHT22;63613;28.200;112.870;2022-10-15T05:43:56;28.00;40.10
41953;DHT22;63613;28.200;112.870;2022-10-15T05:46:24;28.00;39.40
41953;DHT22;63613;28.200;112.870;2022-10-15T05:48:53;27.90;39.00
41953;DHT22;63613;28.200;112.870;2022-10-15T05:51:21;27.80;38.10
41953;DHT22;63613;28.200;112.870;2022-10-15T05:53:52;27.80;38.00
41953;DHT22;63613;28.200;112.870;2022-10-15T05:56:20;27.70;37.90
41953;DHT22;63613;28.200;112.870;2022-10-15T05:58:47;27.70;37.80
41953;DHT22;63613;28.200;112.870;2022-10-15T06:01:18;27.70;37.80
41953;DHT22;63613;28.200;112.870;2022-10-15T06:03:45;27.70;37.70
41953;DHT22;63613;28.200;112.870;2022-10-15T06:06:20;27.70;37.40
41953;DHT22;63613;28.200;112.870;2022-10-15T06:08:48;27.70;37.40
41953;DHT22;63613;28.200;112.870;2022-10-15T06:11:17;27.70;37.30
41953;DHT22;63613;28.200;112.870;2022-10-15T06:13:45;27.70;37.40
41953;DHT22;63613;28.200;112.870;2022-10-15T06:16:14;27.70;37.40
41953;DHT22;63613;28.200;112.870;2022-10-15T06:18:42;27.70;37.20
41953;DHT22;63613;28.200;112.870;2022-10-15T06:21:29;27.70;37.20
41953;DHT22;63613;28.200;112.870;2022-10-15T06:23:56;27.60;37.30
41953;DHT22;63613;28.200;112.870;2022-10-15T06:26:24;27.70;37.30
41953;DHT22;63613;28.200;112.870;2022-10-15T06:28:51;27.60;37.80
41953;DHT22;63613;28.200;112.870;2022-10-15T06:31:18;27.50;38.10
41953;DHT22;63613;28.200;112.870;2022-10-15T06:33:45;27.40;38.40
41953;DHT22;63613;28.200;112.870;2022-10-15T06:36:12;27.40;38.70
41953;DHT22;63613;28.200;112.870;2022-10-15T06:38:39;27.50;38.70
41953;DHT22;63613;28.200;112.870;2022-10-15T06:41:09;27.60;38.70
41953;DHT22;63613;28.200;112.870;2022-10-15T06:43:37;27.60;38.60
41953;DHT22;63613;28.200;112.870;2022-10-15T06:46:05;27.60;38.50
41953;DHT22;63613;28.200;112.870;2022-10-15T06:48:33;27.40;38.50
41953;DHT22;63613;28.200;112.870;2022-10-15T06:51:01;27.40;38.30
41953;DHT22;63613;28.200;112.870;2022-10-15T06:53:29;27.30;38.10
41953;DHT22;63613;28.200;112.870;2022-10-15T06:56:01;27.30;38.00
41953;DHT22;63613;28.200;112.870;2022-10-15T06:58:29;27.40;37.40
41953;DHT22;63613;28.200;112.870;2022-10-15T07:01:04;27.40;37.80
41953;DHT22;63613;28.200;112.870;2022-10-15T07:03:32;27.50;37.60
41953;DHT22;63613;28.200;112.870;2022-10-15T07:06:04;27.50;37.90
41953;DHT22;63613;28.200;112.870;2022-10-15T07:08:32;27.50;37.60
41953;DHT22;63613;28.200;112.870;2022-10-15T07:11:03;27.50;37.60
41953;DHT22;63613;28.200;112.870;2022-10-15T07:13:31;27.40;37.50
41953;DHT22;63613;28.200;112.870;2022-10-15T07:16:06;27.40;37.40
41953;DHT22;63613;28.200;112.870;2022-10-15T07:18:34;27.40;37.30
41953;DHT22;63613;28.200;112.870;2022-10-15T07:21:06;27.40;37.20
41953;DHT22;63613;28.200;112.870;2022-10-15T07:23:34;27.30;37.10
41953;DHT22;63613;28.200;112.870;2022-10-15T07:26:01;27.30;37.00
41953;DHT22;63613;28.200;112.870;2022-10-15T07:28:29;27.20;37.10
41953;DHT22;63613;28.200;112.870;2022-10-15T07:31:16;27.20;37.10
41953;DHT22;63613;28.200;112.870;2022-10-15T07:33:44;27.30;36.90
41953;DHT22;63613;28.200;112.870;2022-10-15T07:36:14;27.30;36.90
41953;DHT22;63613;28.200;112.870;2022-10-15T07:38:42;27.30;36.80
41953;DHT22;63613;28.200;112.870;2022-10-15T07:41:09;27.40;37.10
41953;DHT22;63613;28.200;112.870;2022-10-15T07:43:37;27.30;36.70
41953;DHT22;63613;28.200;112.870;2022-10-15T07:46:05;27.40;36.50
41953;DHT22;63613;28.200;112.870;2022-10-15T07:48:32;27.50;36.20
41953;DHT22;63613;28.200;112.870;2022-10-15T07:51:01;27.40;36.00
41953;DHT22;63613;28.200;112.870;2022-10-15T07:53:29;27.30;35.80
41953;DHT22;63613;28.200;112.870;2022-10-15T07:56:00;27.30;35.80
41953;DHT22;63613;28.200;112.870;2022-10-15T07:58:28;27.30;35.60
41953;DHT22;63613;28.200;112.870;2022-10-15T08:01:08;27.30;35.40
41953;DHT22;63613;28.200;112.870;2022-10-15T08:03:37;27.30;35.20
41953;DHT22;63613;28.200;112.870;2022-10-15T08:06:06;27.30;35.10
41953;DHT22;63613;28.200;112.870;2022-10-15T08:08:34;27.30;35.00
41953;DHT22;63613;28.200;112.870;2022-10-15T08:11:09;27.30;35.10
41953;DHT22;63613;28.200;112.870;2022-10-15T08:13:37;27.30;35.20
41953;DHT22;63613;28.200;112.870;2022-10-15T08:16:07;27.30;35.40
41953;DHT22;63613;28.200;112.870;2022-10-15T08:18:35;27.30;35.60
41953;DHT22;63613;28.200;112.870;2022-10-15T08:21:04;27.30;35.40
41953;DHT22;63613;28.200;112.870;2022-10-15T08:23:32;27.20;35.10
41953;DHT22;63613;28.200;112.870;2022-10-15T08:26:00;27.30;35.40
41953;DHT22;63613;28.200;112.870;2022-10-15T08:28:28;27.30;35.30
41953;DHT22;63613;28.200;112.870;2022-10-15T08:31:01;27.20;35.30
41953;DHT22;63613;28.200;112.870;2022-10-15T08:33:32;27.20;35.00
41953;DHT22;63613;28.200;112.870;2022-10-15T08:36:06;27.10;34.80
41953;DHT22;63613;28.200;112.870;2022-10-15T08:38:35;27.20;34.70
41953;DHT22;63613;28.200;112.870;2022-10-15T08:41:21;27.20;34.60
41953;DHT22;63613;28.200;112.870;2022-10-15T08:43:50;27.10;34.40
41953;DHT22;63613;28.200;112.870;2022-10-15T08:46:44;27.10;34.60
41953;DHT22;63613;28.200;112.870;2022-10-15T08:52:19;27.00;34.60
41953;DHT22;63613;28.200;112.870;2022-10-15T08:54:48;27.00;34.80
41953;DHT22;63613;28.200;112.870;2022-10-15T08:57:56;27.00;34.70
41953;DHT22;63613;28.200;112.870;2022-10-15T09:00:43;27.00;34.70
41953;DHT22;63613;28.200;112.870;2022-10-15T09:03:43;26.90;34.50
41953;DHT22;63613;28.200;112.870;2022-10-15T09:06:18;26.80;34.20
41953;DHT22;63613;28.200;112.870;2022-10-15T09:14:14;26.80;33.50
41953;DHT22;63613;28.200;112.870;2022-10-15T09:16:42;26.70;33.70
41953;DHT22;63613;28.200;112.870;2022-10-15T09:19:21;26.70;33.30
41953;DHT22;63613;28.200;112.870;2022-10-15T09:21:50;26.70;33.70
41953;DHT22;63613;28.200;112.870;2022-10-15T09:24:26;26.70;33.70
41953;DHT22;63613;28.200;112.870;2022-10-15T09:27:53;26.60;33.70
41953;DHT22;63613;28.200;112.870;2022-10-15T09:35:38;26.40;33.10
41953;DHT22;63613;28.200;112.870;2022-10-15T09:43:32;26.30;33.90
41953;DHT22;63613;28.200;112.870;2022-10-15T09:46:02;26.30;33.80
41953;DHT22;63613;28.200;112.870;2022-10-15T09:51:42;26.30;34.60
41953;DHT22;63613;28.200;112.870;2022-10-15T09:54:27;26.30;34.90
41953;DHT22;63613;28.200;112.870;2022-10-15T09:56:56;26.20;35.30
41953;DHT22;63613;28.200;112.870;2022-10-15T09:59:24;26.20;35.70
41953;DHT22;63613;28.200;112.870;2022-10-15T10:02:03;26.20;35.60
41953;DHT22;63613;28.200;112.870;2022-10-15T10:04:34;26.20;35.90
41953;DHT22;63613;28.200;112.870;2022-10-15T10:07:06;26.20;35.90
41953;DHT22;63613;28.200;112.870;2022-10-15T10:09:50;26.20;36.40
41953;DHT22;63613;28.200;112.870;2022-10-15T10:12:26;26.10;36.50
41953;DHT22;63613;28.200;112.870;2022-10-15T10:15:05;26.10;36.50
41953;DHT22;63613;28.200;112.870;2022-10-15T10:17:35;26.00;36.70
41953;DHT22;63613;28.200;112.870;2022-10-15T10:20:24;26.00;36.90
41953;DHT22;63613;28.200;112.870;2022-10-15T10:22:52;26.00;37.30
41953;DHT22;63613;28.200;112.870;2022-10-15T10:25:40;26.00;37.30
41953;DHT22;63613;28.200;112.870;2022-10-15T10:31:05;25.90;37.50
41953;DHT22;63613;28.200;112.870;2022-10-15T10:41:57;25.90;37.60
41953;DHT22;63613;28.200;112.870;2022-10-15T10:44:39;25.90;37.80
41953;DHT22;63613;28.200;112.870;2022-10-15T10:47:25;25.80;38.00
41953;DHT22;63613;28.200;112.870;2022-10-15T10:49:54;25.90;38.50
41953;DHT22;63613;28.200;112.870;2022-10-15T10:54:58;25.80;40.20
41953;DHT22;63613;28.200;112.870;2022-10-15T11:00:48;25.80;40.80
41953;DHT22;63613;28.200;112.870;2022-10-15T11:03:43;25.80;40.50
41953;DHT22;63613;28.200;112.870;2022-10-15T11:11:47;25.80;40.50
41953;DHT22;63613;28.200;112.870;2022-10-15T11:14:43;25.70;40.30
41953;DHT22;63613;28.200;112.870;2022-10-15T11:31:28;25.70;41.30
41953;DHT22;63613;28.200;112.870;2022-10-15T11:42:23;25.60;41.10
41953;DHT22;63613;28.200;112.870;2022-10-15T11:53:33;25.60;41.80
41953;DHT22;63613;28.200;112.870;2022-10-15T11:56:13;25.60;41.70
41953;DHT22;63613;28.200;112.870;2022-10-15T11:58:57;25.60;41.80
41953;DHT22;63613;28.200;112.870;2022-10-15T12:01:35;25.60;41.70
41953;DHT22;63613;28.200;112.870;2022-10-15T12:04:21;25.60;41.80
41953;DHT22;63613;28.200;112.870;2022-10-15T12:06:50;25.50;42.20
41953;DHT22;63613;28.200;112.870;2022-10-15T12:09:25;25.60;42.10
41953;DHT22;63613;28.200;112.870;2022-10-15T12:17:35;25.50;42.60
41953;DHT22;63613;28.200;112.870;2022-10-15T12:20:15;25.50;41.70
41953;DHT22;63613;28.200;112.870;2022-10-15T12:28:17;25.50;42.30
41953;DHT22;63613;28.200;112.870;2022-10-15T12:30:58;25.50;42.50
41953;DHT22;63613;28.200;112.870;2022-10-15T12:33:32;25.50;41.90
41953;DHT22;63613;28.200;112.870;2022-10-15T12:36:06;25.50;42.50
41953;DHT22;63613;28.200;112.870;2022-10-15T12:38:38;25.50;42.10
41953;DHT22;63613;28.200;112.870;2022-10-15T12:41:09;25.50;42.50
41953;DHT22;63613;28.200;112.870;2022-10-15T12:43:43;25.40;42.90
41953;DHT22;63613;28.200;112.870;2022-10-15T12:46:12;25.50;42.90
41953;DHT22;63613;28.200;112.870;2022-10-15T12:48:44;25.40;42.20
41953;DHT22;63613;28.200;112.870;2022-10-15T12:53:50;25.40;41.60
41953;DHT22;63613;28.200;112.870;2022-10-15T12:58:57;25.40;41.20
41953;DHT22;63613;28.200;112.870;2022-10-15T13:01:29;25.40;41.00
41953;DHT22;63613;28.200;112.870;2022-10-15T13:04:16;25.40;41.00
41953;DHT22;63613;28.200;112.870;2022-10-15T13:06:44;25.40;41.00
41953;DHT22;63613;28.200;112.870;2022-10-15T13:11:51;25.50;41.60
41953;DHT22;63613;28.200;112.870;2022-10-15T13:14:37;25.40;41.30
41953;DHT22;63613;28.200;112.870;2022-10-15T13:17:18;25.40;40.80
41953;DHT22;63613;28.200;112.870;2022-10-15T13:20:02;25.40;40.50
41953;DHT22;63613;28.200;112.870;2022-10-15T13:22:35;25.40;40.60
41953;DHT22;63613;28.200;112.870;2022-10-15T13:25:02;25.40;41.20
41953;DHT22;63613;28.200;112.870;2022-10-15T13:27:50;25.40;41.30
41953;DHT22;63613;28.200;112.870;2022-10-15T13:30:17;25.30;40.50
41953;DHT22;63613;28.200;112.870;2022-10-15T13:32:52;25.30;40.30
41953;DHT22;63613;28.200;112.870;2022-10-15T13:35:24;25.40;40.30
41953;DHT22;63613;28.200;112.870;2022-10-15T13:37:56;25.30;40.30
41953;DHT22;63613;28.200;112.870;2022-10-15T13:40:28;25.30;40.90
41953;DHT22;63613;28.200;112.870;2022-10-15T13:43:01;25.30;40.50
41953;DHT22;63613;28.200;112.870;2022-10-15T13:45:29;25.30;40.50
41953;DHT22;63613;28.200;112.870;2022-10-15T13:48:21;25.30;40.90
41953;DHT22;63613;28.200;112.870;2022-10-15T13:50:53;25.30;40.90
41953;DHT22;63613;28.200;112.870;2022-10-15T13:53:39;25.30;40.80
41953;DHT22;63613;28.200;112.870;2022-10-15T13:56:28;25.30;40.80
41953;DHT22;63613;28.200;112.870;2022-10-15T13:59:00;25.30;41.00
41953;DHT22;63613;28.200;112.870;2022-10-15T14:01:29;25.30;41.40
41953;DHT22;63613;28.200;112.870;2022-10-15T14:03:59;25.30;41.40
41953;DHT22;63613;28.200;112.870;2022-10-15T14:06:36;25.30;41.50
41953;DHT22;63613;28.200;112.870;2022-10-15T14:09:18;25.30;41.70
41953;DHT22;63613;28.200;112.870;2022-10-15T14:11:49;25.30;41.70
41953;DHT22;63613;28.200;112.870;2022-10-15T14:14:43;25.30;41.70
41953;DHT22;63613;28.200;112.870;2022-10-15T14:17:33;25.20;41.70
41953;DHT22;63613;28.200;112.870;2022-10-15T14:20:09;25.20;41.90
41953;DHT22;63613;28.200;112.870;2022-10-15T14:22:41;25.20;41.90
41953;DHT22;63613;28.200;112.870;2022-10-15T14:25:09;25.30;42.00
41953;DHT22;63613;28.200;112.870;2022-10-15T14:27:36;25.20;42.10
41953;DHT22;63613;28.200;112.870;2022-10-15T14:30:13;25.30;42.30
41953;DHT22;63613;28.200;112.870;2022-10-15T14:32:46;25.20;42.20
41953;DHT22;63613;28.200;112.870;2022-10-15T14:40:30;25.10;42.60
41953;DHT22;63613;28.200;112.870;2022-10-15T14:45:41;25.20;42.70
41953;DHT22;63613;28.200;112.870;2022-10-15T14:48:41;25.20;43.30
41953;DHT22;63613;28.200;112.870;2022-10-15T14:51:18;25.20;43.20
41953;DHT22;63613;28.200;112.870;2022-10-15T14:53:47;25.20;43.30
41953;DHT22;63613;28.200;112.870;2022-10-15T14:56:23;25.10;43.20
41953;DHT22;63613;28.200;112.870;2022-10-15T14:58:55;25.20;43.10
41953;DHT22;63613;28.200;112.870;2022-10-15T15:01:23;25.10;43.00
41953;DHT22;63613;28.200;112.870;2022-10-15T15:03:54;25.10;43.20
41953;DHT22;63613;28.200;112.870;2022-10-15T15:06:22;25.10;43.20
41953;DHT22;63613;28.200;112.870;2022-10-15T15:08:49;25.10;43.40
41953;DHT22;63613;28.200;112.870;2022-10-15T15:11:22;25.10;43.50
41953;DHT22;63613;28.200;112.870;2022-10-15T15:13:50;25.10;43.50
41953;DHT22;63613;28.200;112.870;2022-10-15T15:16:19;25.10;43.50
41953;DHT22;63613;28.200;112.870;2022-10-15T15:18:46;25.20;43.60
41953;DHT22;63613;28.200;112.870;2022-10-15T15:21:19;25.10;43.40
41953;DHT22;63613;28.200;112.870;2022-10-15T15:23:47;25.10;43.40
41953;DHT22;63613;28.200;112.870;2022-10-15T15:26:16;25.00;43.40
41953;DHT22;63613;28.200;112.870;2022-10-15T15:28:43;25.00;43.50
41953;DHT22;63613;28.200;112.870;2022-10-15T15:31:16;25.00;43.60
41953;DHT22;63613;28.200;112.870;2022-10-15T15:33:44;25.00;43.60
41953;DHT22;63613;28.200;112.870;2022-10-15T15:36:16;25.00;43.70
41953;DHT22;63613;28.200;112.870;2022-10-15T15:38:43;25.00;43.90
41953;DHT22;63613;28.200;112.870;2022-10-15T15:41:19;25.00;44.10
41953;DHT22;63613;28.200;112.870;2022-10-15T15:43:47;25.00;44.20
41953;DHT22;63613;28.200;112.870;2022-10-15T15:46:20;25.00;44.40
41953;DHT22;63613;28.200;112.870;2022-10-15T15:48:47;25.00;44.60
41953;DHT22;63613;28.200;112.870;2022-10-15T15:51:21;25.00;44.60
41953;DHT22;63613;28.200;112.870;2022-10-15T15:53:50;25.00;44.50
41953;DHT22;63613;28.200;112.870;2022-10-15T15:56:17;25.00;44.60
41953;DHT22;63613;28.200;112.870;2022-10-15T15:58:44;25.00;44.80
41953;DHT22;63613;28.200;112.870;2022-10-15T16:01:13;24.90;44.90
41953;DHT22;63613;28.200;112.870;2022-10-15T16:03:40;24.90;45.00
41953;DHT22;63613;28.200;112.870;2022-10-15T16:06:08;24.90;44.90
41953;DHT22;63613;28.200;112.870;2022-10-15T16:08:59;25.00;45.00
41953;DHT22;63613;28.200;112.870;2022-10-15T16:11:27;25.00;45.10
41953;DHT22;63613;28.200;112.870;2022-10-15T16:13:55;24.90;45.30
41953;DHT22;63613;28.200;112.870;2022-10-15T16:16:25;24.90;45.30
41953;DHT22;63613;28.200;112.870;2022-10-15T16:18:52;24.90;45.50
41953;DHT22;63613;28.200;112.870;2022-10-15T16:21:26;24.90;45.50
41953;DHT22;63613;28.200;112.870;2022-10-15T16:23:53;24.90;45.50
41953;DHT22;63613;28.200;112.870;2022-10-15T16:26:21;24.90;45.70
41953;DHT22;63613;28.200;112.870;2022-10-15T16:28:48;24.80;45.80
41953;DHT22;63613;28.200;112.870;2022-10-15T16:31:23;24.80;45.90
41953;DHT22;63613;28.200;112.870;2022-10-15T16:33:51;24.80;46.00
41953;DHT22;63613;28.200;112.870;2022-10-15T16:36:19;24.80;46.10
41953;DHT22;63613;28.200;112.870;2022-10-15T16:38:47;24.80;46.10
41953;DHT22;63613;28.200;112.870;2022-10-15T16:41:15;24.90;46.10
41953;DHT22;63613;28.200;112.870;2022-10-15T16:43:44;24.80;46.20
41953;DHT22;63613;28.200;112.870;2022-10-15T16:46:13;24.80;46.30
41953;DHT22;63613;28.200;112.870;2022-10-15T16:48:41;24.80;46.40
41953;DHT22;63613;28.200;112.870;2022-10-15T16:51:14;24.80;46.30
41953;DHT22;63613;28.200;112.870;2022-10-15T16:53:46;24.80;46.40
41953;DHT22;63613;28.200;112.870;2022-10-15T16:56:19;24.80;46.40
41953;DHT22;63613;28.200;112.870;2022-10-15T16:58:49;24.80;46.40
41953;DHT22;63613;28.200;112.870;2022-10-15T17:01:25;24.80;46.60
41953;DHT22;63613;28.200;112.870;2022-10-15T17:03:52;24.80;46.70
41953;DHT22;63613;28.200;112.870;2022-10-15T17:06:22;24.80;46.70
41953;DHT22;63613;28.200;112.870;2022-10-15T17:09:00;24.80;46.80
41953;DHT22;63613;28.200;112.870;2022-10-15T17:11:34;24.80;46.80
41953;DHT22;63613;28.200;112.870;2022-10-15T17:14:04;24.70;47.10
41953;DHT22;63613;28.200;112.870;2022-10-15T17:16:52;24.80;47.10
41953;DHT22;63613;28.200;112.870;2022-10-15T17:19:21;24.80;47.10
41953;DHT22;63613;28.200;112.870;2022-10-15T17:21:50;24.80;47.10
41953;DHT22;63613;28.200;112.870;2022-10-15T17:24:18;24.70;47.20
41953;DHT22;63613;28.200;112.870;2022-10-15T17:26:47;24.80;47.10
41953;DHT22;63613;28.200;112.870;2022-10-15T17:29:17;24.70;47.40
41953;DHT22;63613;28.200;112.870;2022-10-15T17:31:46;24.60;47.50
41953;DHT22;63613;28.200;112.870;2022-10-15T17:34:14;24.70;47.50
41953;DHT22;63613;28.200;112.870;2022-10-15T17:36:45;24.70;47.40
41953;DHT22;63613;28.200;112.870;2022-10-15T17:39:15;24.70;47.50
41953;DHT22;63613;28.200;112.870;2022-10-15T17:41:42;24.70;47.40
41953;DHT22;63613;28.200;112.870;2022-10-15T17:44:10;24.70;47.40
41953;DHT22;63613;28.200;112.870;2022-10-15T17:46:37;24.70;47.50